sensor_id;sensor_type;location;lat;lon;timestamp;P1;durP1;ratioP1;P2;durP2;ratioP2
58242;SDS011;50118;53.232;8.252;2023-04-03T00:01:04;7.15;;;1.85;;
58242;SDS011;50118;53.232;8.252;2023-04-03T00:03:30;6.70;;;1.63;;
58242;SDS011;50118;53.232;8.252;2023-04-03T00:05:55;6.05;;;1.60;;
58242;SDS011;50118;53.232;8.252;2023-04-03T00:08:21;4.05;;;1.70;;
58242;SDS011;50118;53.232;8.252;2023-04-03T00:10:47;5.07;;;1.58;;
58242;SDS011;50118;53.232;8.252;2023-04-03T00:13:13;4.07;;;1.95;;
58242;SDS011;50118;53.232;8.252;2023-04-03T00:15:38;5.07;;;1.70;;
58242;SDS011;50118;53.232;8.252;2023-04-03T00:18:04;6.35;;;1.80;;
58242;SDS011;50118;53.232;8.252;2023-04-03T00:20:30;4.70;;;1.70;;
58242;SDS011;50118;53.232;8.252;2023-04-03T00:22:56;4.55;;;1.92;;
58242;SDS011;50118;53.232;8.252;2023-04-03T00:25:22;4.88;;;1.67;;
58242;SDS011;50118;53.232;8.252;2023-04-03T00:27:48;4.10;;;1.50;;
58242;SDS011;50118;53.232;8.252;2023-04-03T00:30:14;3.78;;;2.03;;
58242;SDS011;50118;53.232;8.252;2023-04-03T00:32:41;6.63;;;1.80;;
58242;SDS011;50118;53.232;8.252;2023-04-03T00:35:07;4.22;;;1.63;;
58242;SDS011;50118;53.232;8.252;2023-04-03T00:37:33;5.00;;;1.85;;
58242;SDS011;50118;53.232;8.252;2023-04-03T00:39:58;5.65;;;1.80;;
58242;SDS011;50118;53.232;8.252;2023-04-03T00:42:24;7.20;;;2.20;;
58242;SDS011;50118;53.232;8.252;2023-04-03T00:47:21;5.38;;;1.90;;
58242;SDS011;50118;53.232;8.252;2023-04-03T00:49:48;6.25;;;1.88;;
58242;SDS011;50118;53.232;8.252;2023-04-03T00:52:16;6.50;;;1.98;;
58242;SDS011;50118;53.232;8.252;2023-04-03T00:54:45;5.88;;;2.05;;
58242;SDS011;50118;53.232;8.252;2023-04-03T00:57:12;4.15;;;1.90;;
58242;SDS011;50118;53.232;8.252;2023-04-03T00:59:41;6.07;;;2.10;;
58242;SDS011;50118;53.232;8.252;2023-04-03T01:02:09;5.70;;;2.00;;
58242;SDS011;50118;53.232;8.252;2023-04-03T01:04:36;4.80;;;2.00;;
58242;SDS011;50118;53.232;8.252;2023-04-03T01:09:35;3.67;;;2.00;;
58242;SDS011;50118;53.232;8.252;2023-04-03T01:14:55;7.30;;;2.88;;
58242;SDS011;50118;53.232;8.252;2023-04-03T01:17:33;5.78;;;2.28;;
58242;SDS011;50118;53.232;8.252;2023-04-03T01:22:56;5.32;;;2.03;;
58242;SDS011;50118;53.232;8.252;2023-04-03T01:25:27;8.13;;;2.65;;
58242;SDS011;50118;53.232;8.252;2023-04-03T01:27:53;6.55;;;2.13;;
58242;SDS011;50118;53.232;8.252;2023-04-03T01:30:20;7.28;;;2.33;;
58242;SDS011;50118;53.232;8.252;2023-04-03T01:32:48;7.75;;;2.03;;
58242;SDS011;50118;53.232;8.252;2023-04-03T01:35:14;6.00;;;2.20;;
58242;SDS011;50118;53.232;8.252;2023-04-03T01:37:39;4.53;;;2.47;;
58242;SDS011;50118;53.232;8.252;2023-04-03T01:40:05;6.57;;;2.08;;
58242;SDS011;50118;53.232;8.252;2023-04-03T01:42:31;8.27;;;2.60;;
58242;SDS011;50118;53.232;8.252;2023-04-03T01:44:57;7.65;;;2.53;;
58242;SDS011;50118;53.232;8.252;2023-04-03T01:47:22;8.93;;;2.60;;
58242;SDS011;50118;53.232;8.252;2023-04-03T01:49:48;5.50;;;2.45;;
58242;SDS011;50118;53.232;8.252;2023-04-03T01:52:13;6.07;;;1.98;;
58242;SDS011;50118;53.232;8.252;2023-04-03T01:54:39;5.43;;;2.20;;
58242;SDS011;50118;53.232;8.252;2023-04-03T01:57:04;7.53;;;2.50;;
58242;SDS011;50118;53.232;8.252;2023-04-03T01:59:30;6.50;;;2.10;;
58242;SDS011;50118;53.232;8.252;2023-04-03T02:01:55;5.68;;;2.08;;
58242;SDS011;50118;53.232;8.252;2023-04-03T02:04:21;6.13;;;2.47;;
58242;SDS011;50118;53.232;8.252;2023-04-03T02:06:47;5.00;;;2.20;;
58242;SDS011;50118;53.232;8.252;2023-04-03T02:09:12;6.22;;;2.58;;
58242;SDS011;50118;53.232;8.252;2023-04-03T02:11:37;6.50;;;2.28;;
58242;SDS011;50118;53.232;8.252;2023-04-03T02:14:03;6.93;;;2.58;;
58242;SDS011;50118;53.232;8.252;2023-04-03T02:16:28;6.93;;;2.33;;
58242;SDS011;50118;53.232;8.252;2023-04-03T02:18:55;6.88;;;2.53;;
58242;SDS011;50118;53.232;8.252;2023-04-03T02:21:21;5.88;;;2.28;;
58242;SDS011;50118;53.232;8.252;2023-04-03T02:23:46;9.32;;;2.78;;
58242;SDS011;50118;53.232;8.252;2023-04-03T02:26:12;7.18;;;2.58;;
58242;SDS011;50118;53.232;8.252;2023-04-03T02:28:39;6.72;;;2.50;;
58242;SDS011;50118;53.232;8.252;2023-04-03T02:31:06;7.65;;;2.42;;
58242;SDS011;50118;53.232;8.252;2023-04-03T02:33:33;9.25;;;2.90;;
58242;SDS011;50118;53.232;8.252;2023-04-03T02:35:59;10.35;;;2.83;;
58242;SDS011;50118;53.232;8.252;2023-04-03T02:38:25;5.05;;;2.65;;
58242;SDS011;50118;53.232;8.252;2023-04-03T02:40:50;6.60;;;2.90;;
58242;SDS011;50118;53.232;8.252;2023-04-03T02:43:17;6.75;;;2.65;;
58242;SDS011;50118;53.232;8.252;2023-04-03T02:45:43;6.05;;;2.60;;
58242;SDS011;50118;53.232;8.252;2023-04-03T02:48:08;6.75;;;2.80;;
58242;SDS011;50118;53.232;8.252;2023-04-03T02:50:34;9.27;;;2.78;;
58242;SDS011;50118;53.232;8.252;2023-04-03T02:52:59;8.23;;;2.70;;
58242;SDS011;50118;53.232;8.252;2023-04-03T02:55:24;7.80;;;2.95;;
58242;SDS011;50118;53.232;8.252;2023-04-03T02:57:50;8.27;;;2.95;;
58242;SDS011;50118;53.232;8.252;2023-04-03T03:00:15;7.93;;;2.67;;
58242;SDS011;50118;53.232;8.252;2023-04-03T03:02:41;8.43;;;2.60;;
58242;SDS011;50118;53.232;8.252;2023-04-03T03:05:06;6.22;;;3.00;;
58242;SDS011;50118;53.232;8.252;2023-04-03T03:07:32;8.65;;;3.05;;
58242;SDS011;50118;53.232;8.252;2023-04-03T03:09:58;9.48;;;3.42;;
58242;SDS011;50118;53.232;8.252;2023-04-03T03:12:23;8.60;;;3.20;;
58242;SDS011;50118;53.232;8.252;2023-04-03T03:14:49;8.20;;;3.20;;
58242;SDS011;50118;53.232;8.252;2023-04-03T03:17:15;9.88;;;3.10;;
58242;SDS011;50118;53.232;8.252;2023-04-03T03:19:41;8.98;;;3.13;;
58242;SDS011;50118;53.232;8.252;2023-04-03T03:22:07;8.82;;;3.30;;
58242;SDS011;50118;53.232;8.252;2023-04-03T03:24:33;6.75;;;2.80;;
58242;SDS011;50118;53.232;8.252;2023-04-03T03:26:58;8.32;;;3.20;;
58242;SDS011;50118;53.232;8.252;2023-04-03T03:29:23;6.60;;;2.85;;
58242;SDS011;50118;53.232;8.252;2023-04-03T03:31:49;10.18;;;3.13;;
58242;SDS011;50118;53.232;8.252;2023-04-03T03:34:14;8.90;;;3.03;;
58242;SDS011;50118;53.232;8.252;2023-04-03T03:36:40;9.43;;;3.13;;
58242;SDS011;50118;53.232;8.252;2023-04-03T03:39:06;9.07;;;3.03;;
58242;SDS011;50118;53.232;8.252;2023-04-03T03:41:31;5.82;;;3.03;;
58242;SDS011;50118;53.232;8.252;2023-04-03T03:43:58;9.38;;;3.00;;
58242;SDS011;50118;53.232;8.252;2023-04-03T03:46:23;8.27;;;2.95;;
58242;SDS011;50118;53.232;8.252;2023-04-03T03:48:48;8.55;;;2.90;;
58242;SDS011;50118;53.232;8.252;2023-04-03T03:51:14;8.65;;;2.80;;
58242;SDS011;50118;53.232;8.252;2023-04-03T03:53:40;8.23;;;3.22;;
58242;SDS011;50118;53.232;8.252;2023-04-03T03:56:05;5.00;;;2.78;;
58242;SDS011;50118;53.232;8.252;2023-04-03T03:58:31;6.93;;;2.90;;
58242;SDS011;50118;53.232;8.252;2023-04-03T04:00:59;6.95;;;2.80;;
58242;SDS011;50118;53.232;8.252;2023-04-03T04:03:25;8.15;;;2.75;;
58242;SDS011;50118;53.232;8.252;2023-04-03T04:05:51;6.40;;;3.55;;
58242;SDS011;50118;53.232;8.252;2023-04-03T04:08:16;7.88;;;3.30;;
58242;SDS011;50118;53.232;8.252;2023-04-03T04:10:42;8.98;;;3.20;;
58242;SDS011;50118;53.232;8.252;2023-04-03T04:13:07;7.50;;;3.05;;
58242;SDS011;50118;53.232;8.252;2023-04-03T04:15:33;12.95;;;3.20;;
58242;SDS011;50118;53.232;8.252;2023-04-03T04:17:58;8.02;;;3.35;;
58242;SDS011;50118;53.232;8.252;2023-04-03T04:20:24;8.48;;;3.60;;
58242;SDS011;50118;53.232;8.252;2023-04-03T04:22:49;8.18;;;3.28;;
58242;SDS011;50118;53.232;8.252;2023-04-03T04:25:15;8.05;;;3.50;;
58242;SDS011;50118;53.232;8.252;2023-04-03T04:27:40;8.50;;;3.53;;
58242;SDS011;50118;53.232;8.252;2023-04-03T04:30:06;9.70;;;3.70;;
58242;SDS011;50118;53.232;8.252;2023-04-03T04:32:32;8.13;;;3.58;;
58242;SDS011;50118;53.232;8.252;2023-04-03T04:34:57;9.38;;;3.33;;
58242;SDS011;50118;53.232;8.252;2023-04-03T04:37:23;10.40;;;3.88;;
58242;SDS011;50118;53.232;8.252;2023-04-03T04:39:48;9.93;;;3.60;;
58242;SDS011;50118;53.232;8.252;2023-04-03T04:42:14;13.73;;;3.85;;
58242;SDS011;50118;53.232;8.252;2023-04-03T04:44:39;10.48;;;3.80;;
58242;SDS011;50118;53.232;8.252;2023-04-03T04:47:05;10.88;;;3.92;;
58242;SDS011;50118;53.232;8.252;2023-04-03T04:49:30;10.75;;;3.70;;
58242;SDS011;50118;53.232;8.252;2023-04-03T04:51:56;11.85;;;3.67;;
58242;SDS011;50118;53.232;8.252;2023-04-03T04:54:21;11.50;;;3.92;;
58242;SDS011;50118;53.232;8.252;2023-04-03T04:56:46;11.02;;;4.10;;
58242;SDS011;50118;53.232;8.252;2023-04-03T04:59:12;12.15;;;4.28;;
58242;SDS011;50118;53.232;8.252;2023-04-03T05:01:37;10.82;;;3.88;;
58242;SDS011;50118;53.232;8.252;2023-04-03T05:04:03;11.73;;;4.53;;
58242;SDS011;50118;53.232;8.252;2023-04-03T05:06:28;8.55;;;3.97;;
58242;SDS011;50118;53.232;8.252;2023-04-03T05:08:55;9.70;;;3.85;;
58242;SDS011;50118;53.232;8.252;2023-04-03T05:11:20;9.85;;;4.07;;
58242;SDS011;50118;53.232;8.252;2023-04-03T05:13:46;7.72;;;3.90;;
58242;SDS011;50118;53.232;8.252;2023-04-03T05:16:11;12.35;;;4.22;;
58242;SDS011;50118;53.232;8.252;2023-04-03T05:18:37;11.25;;;4.30;;
58242;SDS011;50118;53.232;8.252;2023-04-03T05:21:02;9.48;;;3.97;;
58242;SDS011;50118;53.232;8.252;2023-04-03T05:23:28;7.57;;;3.88;;
58242;SDS011;50118;53.232;8.252;2023-04-03T05:25:53;11.88;;;3.88;;
58242;SDS011;50118;53.232;8.252;2023-04-03T05:28:19;8.57;;;4.07;;
58242;SDS011;50118;53.232;8.252;2023-04-03T05:30:44;10.48;;;4.35;;
58242;SDS011;50118;53.232;8.252;2023-04-03T05:33:09;14.57;;;5.00;;
58242;SDS011;50118;53.232;8.252;2023-04-03T05:35:36;11.52;;;5.50;;
58242;SDS011;50118;53.232;8.252;2023-04-03T05:38:05;9.38;;;4.53;;
58242;SDS011;50118;53.232;8.252;2023-04-03T05:40:30;13.93;;;4.95;;
58242;SDS011;50118;53.232;8.252;2023-04-03T05:42:56;9.40;;;4.50;;
58242;SDS011;50118;53.232;8.252;2023-04-03T05:45:21;7.50;;;4.30;;
58242;SDS011;50118;53.232;8.252;2023-04-03T05:47:47;11.95;;;4.90;;
58242;SDS011;50118;53.232;8.252;2023-04-03T05:50:12;9.13;;;4.50;;
58242;SDS011;50118;53.232;8.252;2023-04-03T05:52:38;11.75;;;5.18;;
58242;SDS011;50118;53.232;8.252;2023-04-03T05:55:07;10.75;;;4.63;;
58242;SDS011;50118;53.232;8.252;2023-04-03T05:57:33;12.70;;;4.82;;
58242;SDS011;50118;53.232;8.252;2023-04-03T05:59:58;9.95;;;4.82;;
58242;SDS011;50118;53.232;8.252;2023-04-03T06:02:24;8.52;;;4.60;;
58242;SDS011;50118;53.232;8.252;2023-04-03T06:04:51;9.70;;;4.35;;
58242;SDS011;50118;53.232;8.252;2023-04-03T06:07:21;7.97;;;4.38;;
58242;SDS011;50118;53.232;8.252;2023-04-03T06:09:48;9.55;;;4.03;;
58242;SDS011;50118;53.232;8.252;2023-04-03T06:12:16;8.10;;;4.18;;
58242;SDS011;50118;53.232;8.252;2023-04-03T06:14:41;10.05;;;4.22;;
58242;SDS011;50118;53.232;8.252;2023-04-03T06:17:07;7.57;;;4.22;;
58242;SDS011;50118;53.232;8.252;2023-04-03T06:19:34;12.57;;;4.30;;
58242;SDS011;50118;53.232;8.252;2023-04-03T06:22:00;8.32;;;4.07;;
58242;SDS011;50118;53.232;8.252;2023-04-03T06:24:25;8.52;;;3.85;;
58242;SDS011;50118;53.232;8.252;2023-04-03T06:26:51;8.63;;;3.65;;
58242;SDS011;50118;53.232;8.252;2023-04-03T06:29:17;6.60;;;3.40;;
58242;SDS011;50118;53.232;8.252;2023-04-03T06:31:44;7.55;;;3.47;;
58242;SDS011;50118;53.232;8.252;2023-04-03T06:34:10;8.65;;;3.70;;
58242;SDS011;50118;53.232;8.252;2023-04-03T06:36:36;10.60;;;2.88;;
58242;SDS011;50118;53.232;8.252;2023-04-03T06:39:04;7.00;;;3.03;;
58242;SDS011;50118;53.232;8.252;2023-04-03T06:41:29;6.50;;;3.10;;
58242;SDS011;50118;53.232;8.252;2023-04-03T06:43:55;6.82;;;3.33;;
58242;SDS011;50118;53.232;8.252;2023-04-03T06:46:23;6.97;;;3.30;;
58242;SDS011;50118;53.232;8.252;2023-04-03T06:48:50;7.43;;;3.50;;
58242;SDS011;50118;53.232;8.252;2023-04-03T06:51:20;7.35;;;2.75;;
58242;SDS011;50118;53.232;8.252;2023-04-03T06:53:48;6.68;;;3.10;;
58242;SDS011;50118;53.232;8.252;2023-04-03T06:56:15;6.90;;;3.10;;
58242;SDS011;50118;53.232;8.252;2023-04-03T06:58:41;7.15;;;2.85;;
58242;SDS011;50118;53.232;8.252;2023-04-03T07:01:08;8.68;;;3.05;;
58242;SDS011;50118;53.232;8.252;2023-04-03T07:03:35;5.45;;;2.50;;
58242;SDS011;50118;53.232;8.252;2023-04-03T07:06:01;5.38;;;2.70;;
58242;SDS011;50118;53.232;8.252;2023-04-03T07:08:28;6.60;;;2.42;;
58242;SDS011;50118;53.232;8.252;2023-04-03T07:10:54;5.53;;;2.70;;
58242;SDS011;50118;53.232;8.252;2023-04-03T07:13:19;5.60;;;2.78;;
58242;SDS011;50118;53.232;8.252;2023-04-03T07:15:45;6.10;;;2.50;;
58242;SDS011;50118;53.232;8.252;2023-04-03T07:18:11;6.75;;;2.47;;
58242;SDS011;50118;53.232;8.252;2023-04-03T07:20:36;7.40;;;2.22;;
58242;SDS011;50118;53.232;8.252;2023-04-03T07:23:01;6.13;;;2.35;;
58242;SDS011;50118;53.232;8.252;2023-04-03T07:25:27;6.57;;;2.60;;
58242;SDS011;50118;53.232;8.252;2023-04-03T07:27:53;7.03;;;2.55;;
58242;SDS011;50118;53.232;8.252;2023-04-03T07:30:22;5.28;;;2.10;;
58242;SDS011;50118;53.232;8.252;2023-04-03T07:32:48;7.00;;;2.60;;
58242;SDS011;50118;53.232;8.252;2023-04-03T07:35:13;6.10;;;2.50;;
58242;SDS011;50118;53.232;8.252;2023-04-03T07:37:39;6.70;;;1.90;;
58242;SDS011;50118;53.232;8.252;2023-04-03T07:40:05;5.43;;;2.10;;
58242;SDS011;50118;53.232;8.252;2023-04-03T07:42:31;6.40;;;2.20;;
58242;SDS011;50118;53.232;8.252;2023-04-03T07:44:57;4.50;;;1.95;;
58242;SDS011;50118;53.232;8.252;2023-04-03T07:47:22;6.15;;;2.30;;
58242;SDS011;50118;53.232;8.252;2023-04-03T07:49:48;3.22;;;1.65;;
58242;SDS011;50118;53.232;8.252;2023-04-03T07:52:13;5.55;;;1.95;;
58242;SDS011;50118;53.232;8.252;2023-04-03T07:54:40;5.05;;;1.90;;
58242;SDS011;50118;53.232;8.252;2023-04-03T07:57:06;4.95;;;1.77;;
58242;SDS011;50118;53.232;8.252;2023-04-03T07:59:31;6.28;;;1.80;;
58242;SDS011;50118;53.232;8.252;2023-04-03T08:01:57;4.65;;;1.80;;
58242;SDS011;50118;53.232;8.252;2023-04-03T08:04:23;3.75;;;1.85;;
58242;SDS011;50118;53.232;8.252;2023-04-03T08:06:48;4.97;;;1.50;;
58242;SDS011;50118;53.232;8.252;2023-04-03T08:09:15;5.75;;;1.90;;
58242;SDS011;50118;53.232;8.252;2023-04-03T08:11:41;6.72;;;1.90;;
58242;SDS011;50118;53.232;8.252;2023-04-03T08:14:06;4.75;;;1.73;;
58242;SDS011;50118;53.232;8.252;2023-04-03T08:16:32;4.35;;;1.92;;
58242;SDS011;50118;53.232;8.252;2023-04-03T08:18:57;5.70;;;2.28;;
58242;SDS011;50118;53.232;8.252;2023-04-03T08:21:23;5.05;;;2.15;;
58242;SDS011;50118;53.232;8.252;2023-04-03T08:23:49;8.57;;;2.00;;
58242;SDS011;50118;53.232;8.252;2023-04-03T08:26:16;5.25;;;2.15;;
58242;SDS011;50118;53.232;8.252;2023-04-03T08:28:45;5.03;;;1.90;;
58242;SDS011;50118;53.232;8.252;2023-04-03T08:31:11;4.90;;;1.80;;
58242;SDS011;50118;53.232;8.252;2023-04-03T08:33:40;3.15;;;1.63;;
58242;SDS011;50118;53.232;8.252;2023-04-03T08:36:06;4.72;;;1.80;;
58242;SDS011;50118;53.232;8.252;2023-04-03T08:38:40;3.88;;;1.70;;
58242;SDS011;50118;53.232;8.252;2023-04-03T08:47:25;3.95;;;1.70;;
58242;SDS011;50118;53.232;8.252;2023-04-03T08:50:14;6.55;;;1.88;;
58242;SDS011;50118;53.232;8.252;2023-04-03T08:52:44;6.30;;;2.13;;
58242;SDS011;50118;53.232;8.252;2023-04-03T08:55:16;5.80;;;1.60;;
58242;SDS011;50118;53.232;8.252;2023-04-03T08:58:07;2.88;;;1.73;;
58242;SDS011;50118;53.232;8.252;2023-04-03T09:00:44;3.28;;;1.60;;
58242;SDS011;50118;53.232;8.252;2023-04-03T09:03:17;4.93;;;1.88;;
58242;SDS011;50118;53.232;8.252;2023-04-03T09:08:25;3.63;;;1.50;;
58242;SDS011;50118;53.232;8.252;2023-04-03T09:11:16;6.10;;;1.85;;
58242;SDS011;50118;53.232;8.252;2023-04-03T09:22:20;5.63;;;1.50;;
58242;SDS011;50118;53.232;8.252;2023-04-03T09:24:57;2.70;;;1.45;;
58242;SDS011;50118;53.232;8.252;2023-04-03T09:27:26;3.40;;;1.60;;
58242;SDS011;50118;53.232;8.252;2023-04-03T09:29:53;3.72;;;1.40;;
58242;SDS011;50118;53.232;8.252;2023-04-03T09:32:35;3.47;;;1.30;;
58242;SDS011;50118;53.232;8.252;2023-04-03T09:35:15;6.20;;;1.40;;
58242;SDS011;50118;53.232;8.252;2023-04-03T09:37:45;3.40;;;1.10;;
58242;SDS011;50118;53.232;8.252;2023-04-03T09:42:51;2.97;;;1.50;;
58242;SDS011;50118;53.232;8.252;2023-04-03T09:45:32;2.65;;;0.90;;
58242;SDS011;50118;53.232;8.252;2023-04-03T09:50:38;4.10;;;1.30;;
58242;SDS011;50118;53.232;8.252;2023-04-03T09:55:54;1.50;;;0.93;;
58242;SDS011;50118;53.232;8.252;2023-04-03T09:58:38;3.88;;;1.20;;
58242;SDS011;50118;53.232;8.252;2023-04-03T10:01:06;3.05;;;1.27;;
58242;SDS011;50118;53.232;8.252;2023-04-03T10:03:45;3.50;;;1.23;;
58242;SDS011;50118;53.232;8.252;2023-04-03T10:06:21;3.20;;;1.50;;
58242;SDS011;50118;53.232;8.252;2023-04-03T10:08:59;4.40;;;1.20;;
58242;SDS011;50118;53.232;8.252;2023-04-03T10:12:00;3.15;;;1.15;;
58242;SDS011;50118;53.232;8.252;2023-04-03T10:14:38;2.20;;;1.20;;
58242;SDS011;50118;53.232;8.252;2023-04-03T10:19:48;4.35;;;1.20;;
58242;SDS011;50118;53.232;8.252;2023-04-03T10:30:20;2.15;;;0.90;;
58242;SDS011;50118;53.232;8.252;2023-04-03T10:33:01;1.67;;;0.90;;
58242;SDS011;50118;53.232;8.252;2023-04-03T10:42:02;2.72;;;1.13;;
58242;SDS011;50118;53.232;8.252;2023-04-03T10:52:38;2.03;;;1.10;;
58242;SDS011;50118;53.232;8.252;2023-04-03T10:55:24;1.88;;;0.82;;
58242;SDS011;50118;53.232;8.252;2023-04-03T10:57:57;5.00;;;1.30;;
58242;SDS011;50118;53.232;8.252;2023-04-03T11:00:45;2.28;;;1.00;;
58242;SDS011;50118;53.232;8.252;2023-04-03T11:03:16;3.25;;;1.33;;
58242;SDS011;50118;53.232;8.252;2023-04-03T11:05:52;2.72;;;1.13;;
58242;SDS011;50118;53.232;8.252;2023-04-03T11:08:28;3.90;;;1.17;;
58242;SDS011;50118;53.232;8.252;2023-04-03T11:11:00;1.48;;;0.90;;
58242;SDS011;50118;53.232;8.252;2023-04-03T11:13:39;3.83;;;1.38;;
58242;SDS011;50118;53.232;8.252;2023-04-03T11:16:08;1.50;;;0.98;;
58242;SDS011;50118;53.232;8.252;2023-04-03T11:18:39;2.08;;;1.23;;
58242;SDS011;50118;53.232;8.252;2023-04-03T11:21:15;2.47;;;0.93;;
58242;SDS011;50118;53.232;8.252;2023-04-03T11:23:46;2.97;;;1.17;;
58242;SDS011;50118;53.232;8.252;2023-04-03T11:26:13;2.85;;;0.90;;
58242;SDS011;50118;53.232;8.252;2023-04-03T11:28:41;2.05;;;0.98;;
58242;SDS011;50118;53.232;8.252;2023-04-03T11:36:59;3.30;;;1.25;;
58242;SDS011;50118;53.232;8.252;2023-04-03T11:41:54;3.58;;;1.02;;
58242;SDS011;50118;53.232;8.252;2023-04-03T11:46:56;1.92;;;1.05;;
58242;SDS011;50118;53.232;8.252;2023-04-03T11:57:46;3.40;;;1.23;;
58242;SDS011;50118;53.232;8.252;2023-04-03T12:21:22;2.25;;;1.00;;
58242;SDS011;50118;53.232;8.252;2023-04-03T12:34:42;2.17;;;0.98;;
58242;SDS011;50118;53.232;8.252;2023-04-03T12:46:13;2.22;;;1.00;;
58242;SDS011;50118;53.232;8.252;2023-04-03T12:54:19;2.53;;;1.10;;
58242;SDS011;50118;53.232;8.252;2023-04-03T12:56:50;2.97;;;1.10;;
58242;SDS011;50118;53.232;8.252;2023-04-03T12:59:23;2.92;;;1.30;;
58242;SDS011;50118;53.232;8.252;2023-04-03T13:02:00;2.25;;;1.10;;
58242;SDS011;50118;53.232;8.252;2023-04-03T13:04:26;2.40;;;1.20;;
58242;SDS011;50118;53.232;8.252;2023-04-03T13:06:54;1.33;;;0.90;;
58242;SDS011;50118;53.232;8.252;2023-04-03T13:09:21;2.70;;;1.05;;
58242;SDS011;50118;53.232;8.252;2023-04-03T13:12:11;2.83;;;1.35;;
58242;SDS011;50118;53.232;8.252;2023-04-03T13:14:40;8.05;;;1.63;;
58242;SDS011;50118;53.232;8.252;2023-04-03T13:17:16;3.70;;;1.30;;
58242;SDS011;50118;53.232;8.252;2023-04-03T13:19:42;3.05;;;1.30;;
58242;SDS011;50118;53.232;8.252;2023-04-03T13:24:54;2.67;;;1.05;;
58242;SDS011;50118;53.232;8.252;2023-04-03T13:27:22;3.33;;;1.15;;
58242;SDS011;50118;53.232;8.252;2023-04-03T13:29:52;3.08;;;1.30;;
58242;SDS011;50118;53.232;8.252;2023-04-03T13:32:20;3.03;;;1.17;;
58242;SDS011;50118;53.232;8.252;2023-04-03T13:34:48;3.17;;;1.20;;
58242;SDS011;50118;53.232;8.252;2023-04-03T13:37:21;3.30;;;1.40;;
58242;SDS011;50118;53.232;8.252;2023-04-03T13:42:26;2.88;;;1.25;;
58242;SDS011;50118;53.232;8.252;2023-04-03T13:47:41;3.30;;;1.30;;
58242;SDS011;50118;53.232;8.252;2023-04-03T13:52:44;3.80;;;1.50;;
58242;SDS011;50118;53.232;8.252;2023-04-03T13:57:50;3.38;;;1.40;;
58242;SDS011;50118;53.232;8.252;2023-04-03T14:00:20;3.28;;;1.20;;
58242;SDS011;50118;53.232;8.252;2023-04-03T14:02:57;4.55;;;1.48;;
58242;SDS011;50118;53.232;8.252;2023-04-03T14:05:23;4.07;;;1.60;;
58242;SDS011;50118;53.232;8.252;2023-04-03T14:07:50;4.57;;;1.40;;
58242;SDS011;50118;53.232;8.252;2023-04-03T14:10:16;3.35;;;1.60;;
58242;SDS011;50118;53.232;8.252;2023-04-03T14:12:42;3.20;;;1.58;;
58242;SDS011;50118;53.232;8.252;2023-04-03T14:15:14;3.63;;;1.70;;
58242;SDS011;50118;53.232;8.252;2023-04-03T14:17:46;3.20;;;1.77;;
58242;SDS011;50118;53.232;8.252;2023-04-03T14:20:19;4.20;;;1.50;;
58242;SDS011;50118;53.232;8.252;2023-04-03T14:22:46;3.10;;;1.67;;
58242;SDS011;50118;53.232;8.252;2023-04-03T14:25:13;4.43;;;1.70;;
58242;SDS011;50118;53.232;8.252;2023-04-03T14:27:40;4.07;;;1.77;;
58242;SDS011;50118;53.232;8.252;2023-04-03T14:30:11;2.88;;;1.52;;
58242;SDS011;50118;53.232;8.252;2023-04-03T14:32:40;3.80;;;1.33;;
58242;SDS011;50118;53.232;8.252;2023-04-03T14:35:06;4.15;;;1.50;;
58242;SDS011;50118;53.232;8.252;2023-04-03T14:37:32;4.00;;;1.40;;
58242;SDS011;50118;53.232;8.252;2023-04-03T14:39:58;3.05;;;1.30;;
58242;SDS011;50118;53.232;8.252;2023-04-03T14:42:27;3.42;;;1.50;;
58242;SDS011;50118;53.232;8.252;2023-04-03T14:44:55;3.25;;;1.27;;
58242;SDS011;50118;53.232;8.252;2023-04-03T14:47:23;2.85;;;1.25;;
58242;SDS011;50118;53.232;8.252;2023-04-03T14:49:51;3.08;;;1.30;;
58242;SDS011;50118;53.232;8.252;2023-04-03T14:52:25;2.47;;;1.20;;
58242;SDS011;50118;53.232;8.252;2023-04-03T14:54:52;5.55;;;1.20;;
58242;SDS011;50118;53.232;8.252;2023-04-03T14:57:19;2.45;;;1.15;;
58242;SDS011;50118;53.232;8.252;2023-04-03T14:59:49;3.25;;;1.25;;
58242;SDS011;50118;53.232;8.252;2023-04-03T15:04:46;2.58;;;1.45;;
58242;SDS011;50118;53.232;8.252;2023-04-03T15:07:11;4.60;;;1.55;;
58242;SDS011;50118;53.232;8.252;2023-04-03T15:09:37;4.32;;;1.50;;
58242;SDS011;50118;53.232;8.252;2023-04-03T15:12:02;3.67;;;1.60;;
58242;SDS011;50118;53.232;8.252;2023-04-03T15:14:28;2.70;;;1.27;;
58242;SDS011;50118;53.232;8.252;2023-04-03T15:16:53;3.75;;;1.40;;
58242;SDS011;50118;53.232;8.252;2023-04-03T15:19:18;3.78;;;1.40;;
58242;SDS011;50118;53.232;8.252;2023-04-03T15:21:44;4.57;;;1.50;;
58242;SDS011;50118;53.232;8.252;2023-04-03T15:24:10;3.20;;;1.52;;
58242;SDS011;50118;53.232;8.252;2023-04-03T15:26:35;3.53;;;1.45;;
58242;SDS011;50118;53.232;8.252;2023-04-03T15:29:01;4.18;;;1.60;;
58242;SDS011;50118;53.232;8.252;2023-04-03T15:31:27;3.60;;;1.50;;
58242;SDS011;50118;53.232;8.252;2023-04-03T15:33:52;4.72;;;1.40;;
58242;SDS011;50118;53.232;8.252;2023-04-03T15:36:18;4.25;;;1.50;;
58242;SDS011;50118;53.232;8.252;2023-04-03T15:38:43;4.90;;;1.70;;
58242;SDS011;50118;53.232;8.252;2023-04-03T15:41:08;4.65;;;1.70;;
58242;SDS011;50118;53.232;8.252;2023-04-03T15:43:34;4.15;;;1.67;;
58242;SDS011;50118;53.232;8.252;2023-04-03T15:46:00;4.03;;;1.60;;
58242;SDS011;50118;53.232;8.252;2023-04-03T15:48:26;5.35;;;1.60;;
58242;SDS011;50118;53.232;8.252;2023-04-03T15:50:53;3.45;;;1.60;;
58242;SDS011;50118;53.232;8.252;2023-04-03T15:53:18;4.75;;;1.85;;
58242;SDS011;50118;53.232;8.252;2023-04-03T15:55:44;7.53;;;1.90;;
58242;SDS011;50118;53.232;8.252;2023-04-03T15:58:09;4.15;;;1.80;;
58242;SDS011;50118;53.232;8.252;2023-04-03T16:00:36;5.10;;;1.95;;
58242;SDS011;50118;53.232;8.252;2023-04-03T16:03:06;3.67;;;1.70;;
58242;SDS011;50118;53.232;8.252;2023-04-03T16:05:36;4.35;;;1.77;;
58242;SDS011;50118;53.232;8.252;2023-04-03T16:08:03;3.83;;;2.00;;
58242;SDS011;50118;53.232;8.252;2023-04-03T16:10:30;5.65;;;2.20;;
58242;SDS011;50118;53.232;8.252;2023-04-03T16:12:56;4.07;;;1.80;;
58242;SDS011;50118;53.232;8.252;2023-04-03T16:15:22;3.95;;;2.08;;
58242;SDS011;50118;53.232;8.252;2023-04-03T16:17:49;3.45;;;1.90;;
58242;SDS011;50118;53.232;8.252;2023-04-03T16:20:15;5.25;;;2.67;;
58242;SDS011;50118;53.232;8.252;2023-04-03T16:22:41;6.43;;;2.55;;
58242;SDS011;50118;53.232;8.252;2023-04-03T16:25:08;5.30;;;2.00;;
58242;SDS011;50118;53.232;8.252;2023-04-03T16:27:34;4.07;;;2.42;;
58242;SDS011;50118;53.232;8.252;2023-04-03T16:29:59;4.22;;;2.20;;
58242;SDS011;50118;53.232;8.252;2023-04-03T16:32:26;4.28;;;2.20;;
58242;SDS011;50118;53.232;8.252;2023-04-03T16:34:54;4.97;;;2.35;;
58242;SDS011;50118;53.232;8.252;2023-04-03T16:37:20;5.22;;;2.10;;
58242;SDS011;50118;53.232;8.252;2023-04-03T16:39:45;6.25;;;2.60;;
58242;SDS011;50118;53.232;8.252;2023-04-03T16:42:11;6.15;;;2.58;;
58242;SDS011;50118;53.232;8.252;2023-04-03T16:44:37;7.38;;;2.40;;
58242;SDS011;50118;53.232;8.252;2023-04-03T16:47:04;5.85;;;2.60;;
58242;SDS011;50118;53.232;8.252;2023-04-03T16:49:31;7.10;;;2.63;;
58242;SDS011;50118;53.232;8.252;2023-04-03T16:51:59;4.55;;;2.10;;
58242;SDS011;50118;53.232;8.252;2023-04-03T16:54:29;5.10;;;2.90;;
58242;SDS011;50118;53.232;8.252;2023-04-03T16:56:55;4.13;;;2.33;;
58242;SDS011;50118;53.232;8.252;2023-04-03T16:59:21;5.93;;;2.78;;
58242;SDS011;50118;53.232;8.252;2023-04-03T17:01:46;6.93;;;2.58;;
58242;SDS011;50118;53.232;8.252;2023-04-03T17:04:12;4.63;;;2.10;;
58242;SDS011;50118;53.232;8.252;2023-04-03T17:06:37;5.82;;;2.20;;
58242;SDS011;50118;53.232;8.252;2023-04-03T17:09:03;7.38;;;2.85;;
58242;SDS011;50118;53.232;8.252;2023-04-03T17:11:30;8.95;;;4.63;;